createdAt,value
2018-05-08T00:02:02.418Z,33.67
2018-05-08T00:04:30.029Z,31.07
2018-05-08T00:06:58.298Z,29.97
2018-05-08T00:09:26.983Z,30.70
2018-05-08T00:11:55.564Z,33.53
2018-05-08T00:14:23.133Z,29.37
2018-05-08T00:16:50.752Z,29.37
2018-05-08T00:19:18.307Z,30.57
2018-05-08T00:21:46.209Z,31.93
2018-05-08T00:24:14.476Z,32.27
2018-05-08T00:26:42.876Z,33.73
2018-05-08T00:29:12.394Z,35.07
2018-05-08T00:31:40.104Z,34.00
2018-05-08T00:34:07.681Z,34.53
2018-05-08T00:36:35.284Z,31.83
2018-05-08T00:39:02.936Z,31.93
2018-05-08T00:41:31.412Z,31.90
2018-05-08T00:44:02.228Z,35.00
2018-05-08T00:46:30.485Z,29.33
2018-05-08T00:48:58.030Z,32.43
2018-05-08T00:51:25.617Z,31.07
2018-05-08T00:53:53.208Z,30.73
2018-05-08T00:56:21.147Z,30.77
2018-05-08T00:58:50.376Z,29.23
2018-05-08T01:01:18.917Z,27.40
2018-05-08T01:03:47.413Z,27.33
2018-05-08T01:06:14.988Z,31.50
2018-05-08T01:08:42.556Z,28.10
2018-05-08T01:11:10.116Z,35.77
2018-05-08T01:13:37.894Z,30.90
2018-05-08T01:16:06.716Z,34.43
2018-05-08T01:18:36.051Z,29.40
2018-05-08T01:21:03.646Z,25.90
2018-05-08T01:23:31.237Z,24.70
2018-05-08T01:25:58.795Z,27.03
2018-05-08T01:28:26.349Z,25.80
2018-05-08T01:30:53.987Z,24.37
2018-05-08T01:33:22.965Z,28.73
2018-05-08T01:35:52.346Z,30.17
2018-05-08T01:38:21.894Z,31.97
2018-05-08T01:40:49.507Z,30.67
2018-05-08T01:43:17.209Z,27.87
2018-05-08T01:45:44.829Z,30.23
2018-05-08T01:48:12.504Z,33.17
2018-05-08T01:50:40.160Z,33.07
2018-05-08T01:53:07.876Z,33.10
2018-05-08T01:55:36.002Z,28.80
2018-05-08T01:58:03.600Z,26.87
2018-05-08T02:00:31.184Z,29.77
2018-05-08T02:02:58.784Z,33.43
2018-05-08T02:05:26.685Z,31.27
2018-05-08T02:07:55.572Z,30.47
2018-05-08T02:10:23.416Z,31.10
2018-05-08T02:12:51.965Z,31.30
2018-05-08T02:15:19.578Z,32.87
2018-05-08T02:17:47.199Z,38.50
2018-05-08T02:20:15.015Z,32.23
2018-05-08T02:22:43.726Z,31.43
2018-05-08T02:25:11.432Z,37.20
2018-05-08T02:27:40.379Z,37.20
2018-05-08T02:30:10.277Z,39.70
2018-05-08T02:32:37.836Z,35.77
2018-05-08T02:35:05.392Z,44.53
2018-05-08T02:37:32.969Z,35.67
2018-05-08T02:40:01.624Z,35.83
2018-05-08T02:42:30.412Z,34.63
2018-05-08T02:44:59.623Z,36.40
2018-05-08T02:47:28.090Z,35.47
2018-05-08T02:49:55.687Z,33.60
2018-05-08T02:52:23.256Z,33.43
2018-05-08T02:54:50.868Z,31.87
2018-05-08T02:57:19.580Z,32.03
2018-05-08T02:59:48.123Z,34.50
2018-05-08T03:02:15.805Z,38.50
2018-05-08T03:04:43.504Z,38.23
2018-05-08T03:07:11.169Z,36.33
2018-05-08T03:09:38.724Z,37.23
2018-05-08T03:12:06.286Z,37.73
2018-05-08T03:14:35.021Z,35.97
2018-05-08T03:17:03.657Z,38.03
2018-05-08T03:19:33.900Z,41.67
2018-05-08T03:22:02.530Z,39.67
2018-05-08T03:24:30.090Z,49.53
2018-05-08T03:26:57.674Z,38.77
2018-05-08T03:29:25.319Z,39.57
2018-05-08T03:31:53.249Z,45.87
2018-05-08T03:34:22.266Z,42.73
2018-05-08T03:36:50.965Z,35.43
2018-05-08T03:39:19.536Z,39.00
2018-05-08T03:41:47.128Z,40.47
2018-05-08T03:44:14.687Z,41.97
2018-05-08T03:46:42.287Z,40.50
2018-05-08T03:49:10.184Z,40.23
2018-05-08T03:51:38.223Z,38.33
2018-05-08T03:54:06.391Z,43.87
2018-05-08T03:56:35.044Z,47.53
2018-05-08T03:59:02.602Z,39.53
2018-05-08T04:01:41.971Z,39.53
2018-05-08T04:07:38.308Z,44.87
2018-05-08T04:10:05.998Z,42.23
2018-05-08T04:12:33.653Z,46.40
2018-05-08T04:15:01.261Z,40.93
2018-05-08T04:17:28.901Z,40.83
2018-05-08T04:19:56.501Z,41.43
2018-05-08T04:22:24.169Z,43.60
2018-05-08T04:24:51.862Z,38.93
2018-05-08T04:27:20.493Z,42.50
2018-05-08T04:29:48.211Z,36.63
2018-05-08T04:32:15.809Z,41.63
2018-05-08T04:34:43.380Z,43.27
2018-05-08T04:37:11.024Z,40.53
2018-05-08T04:39:38.671Z,41.63
2018-05-08T04:42:06.424Z,41.50
2018-05-08T04:44:34.366Z,40.47
2018-05-08T04:47:02.442Z,43.97
2018-05-08T04:49:30.233Z,41.17
2018-05-08T04:51:57.828Z,41.93
2018-05-08T04:54:25.454Z,41.57
2018-05-08T04:56:53.105Z,38.57
2018-05-08T04:59:20.850Z,42.37
2018-05-08T05:01:48.573Z,45.17
2018-05-08T05:04:16.313Z,48.50
2018-05-08T05:06:43.904Z,46.97
2018-05-08T05:09:11.471Z,40.70
2018-05-08T05:11:39.053Z,41.53
2018-05-08T05:14:06.707Z,44.37
2018-05-08T05:16:34.555Z,39.33
2018-05-08T05:19:02.265Z,45.27
2018-05-08T05:21:30.277Z,44.77
2018-05-08T05:23:57.928Z,44.57
2018-05-08T05:26:25.498Z,42.43
2018-05-08T05:28:53.051Z,42.83
2018-05-08T05:31:20.886Z,48.70
2018-05-08T05:33:48.489Z,44.27
2018-05-08T05:36:16.209Z,40.07
2018-05-08T05:38:44.846Z,38.70
2018-05-08T05:41:12.453Z,41.60
2018-05-08T05:43:40.155Z,38.60
2018-05-08T05:46:09.468Z,43.20
2018-05-08T05:48:37.088Z,41.93
2018-05-08T05:51:04.740Z,42.27
2018-05-08T05:53:32.559Z,36.53
2018-05-08T05:56:00.220Z,35.10
2018-05-08T05:58:27.951Z,36.97
2018-05-08T06:00:55.530Z,36.03
2018-05-08T06:03:23.154Z,40.27
2018-05-08T06:05:50.770Z,35.47
2018-05-08T06:08:19.564Z,37.50
2018-05-08T06:10:47.213Z,35.33
2018-05-08T06:13:14.932Z,33.27
2018-05-08T06:15:42.485Z,34.40
2018-05-08T06:18:10.036Z,33.73
2018-05-08T06:20:37.614Z,34.63
2018-05-08T06:23:05.356Z,37.57
2018-05-08T06:25:33.085Z,34.60
2018-05-08T06:28:00.834Z,35.07
2018-05-08T06:30:29.794Z,31.50
2018-05-08T06:32:57.348Z,38.03
2018-05-08T06:35:24.934Z,38.47
2018-05-08T06:37:52.534Z,31.90
2018-05-08T06:40:20.369Z,37.37
2018-05-08T06:42:48.063Z,34.23
2018-05-08T06:45:16.036Z,34.20
2018-05-08T06:47:44.961Z,33.17
2018-05-08T06:50:12.779Z,31.43
2018-05-08T06:52:40.356Z,30.23
2018-05-08T06:55:07.936Z,28.33
2018-05-08T06:57:36.657Z,28.30
2018-05-08T07:00:06.937Z,31.40
2018-05-08T07:02:35.756Z,26.23
2018-05-08T07:05:07.288Z,23.00
2018-05-08T07:07:34.893Z,20.90
2018-05-08T07:10:02.528Z,23.33
2018-05-08T07:12:30.233Z,22.67
2018-05-08T07:14:58.292Z,22.47
2018-05-08T07:17:26.681Z,25.47
2018-05-08T07:19:58.026Z,30.17
2018-05-08T07:22:28.334Z,23.93
2018-05-08T07:24:55.957Z,21.37
2018-05-08T07:27:24.641Z,23.70
2018-05-08T07:29:53.523Z,22.83
2018-05-08T07:32:23.579Z,21.83
2018-05-08T07:37:23.930Z,20.47
2018-05-08T07:39:55.404Z,23.03
2018-05-08T07:42:22.990Z,20.80
2018-05-08T07:44:50.692Z,18.13
2018-05-08T07:47:18.411Z,19.97
2018-05-08T07:49:47.589Z,20.30
2018-05-08T07:52:18.291Z,21.80
2018-05-08T07:54:47.064Z,22.87
2018-05-08T07:57:20.216Z,21.70
2018-05-08T07:59:47.770Z,21.90
2018-05-08T08:02:15.619Z,21.47
2018-05-08T08:04:43.243Z,25.27
2018-05-08T08:07:12.135Z,22.67
2018-05-08T08:09:40.065Z,23.87
2018-05-08T08:12:08.279Z,20.63
2018-05-08T08:14:36.105Z,22.40
2018-05-08T08:17:03.699Z,26.30
2018-05-08T08:19:31.212Z,25.53
2018-05-08T08:21:58.859Z,23.10
2018-05-08T08:24:30.104Z,22.17
2018-05-08T08:27:00.294Z,28.13
2018-05-08T08:29:28.056Z,21.73
2018-05-08T08:31:56.057Z,23.33
2018-05-08T08:34:23.723Z,20.30
2018-05-08T08:36:51.444Z,21.40
2018-05-08T08:39:19.124Z,19.00
2018-05-08T08:41:48.073Z,19.43
2018-05-08T08:44:18.472Z,17.23
2018-05-08T08:46:47.632Z,15.87
2018-05-08T08:49:16.353Z,16.00
2018-05-08T08:51:43.918Z,17.10
2018-05-08T08:54:11.640Z,13.33
2018-05-08T08:56:39.275Z,12.67
2018-05-08T08:59:08.235Z,13.03
2018-05-08T09:01:35.861Z,14.27
2018-05-08T09:04:04.150Z,13.13
2018-05-08T09:06:31.751Z,17.33
2018-05-08T09:08:59.369Z,12.70
2018-05-08T09:11:26.996Z,11.43
2018-05-08T09:13:54.732Z,11.07
2018-05-08T09:16:27.320Z,12.03
2018-05-08T09:18:55.915Z,10.97
2018-05-08T09:21:30.603Z,10.53
2018-05-08T09:23:58.187Z,13.60
2018-05-08T09:26:25.791Z,13.53
2018-05-08T09:28:54.177Z,11.00
2018-05-08T09:31:21.835Z,11.27
2018-05-08T09:33:50.481Z,15.17
2018-05-08T09:36:19.747Z,15.47
2018-05-08T09:38:47.939Z,13.83
2018-05-08T09:41:15.524Z,14.50
2018-05-08T09:43:43.119Z,11.37
2018-05-08T09:46:10.668Z,12.13
2018-05-08T09:48:38.242Z,10.83
2018-05-08T09:51:08.429Z,11.30
2018-05-08T09:53:39.207Z,12.70
2018-05-08T09:56:12.121Z,10.00
2018-05-08T09:58:39.679Z,9.40
2018-05-08T10:01:07.335Z,10.10
2018-05-08T10:03:34.888Z,8.80
2018-05-08T10:06:02.531Z,8.73
2018-05-08T10:08:31.721Z,8.13
2018-05-08T10:11:02.581Z,8.33
2018-05-08T10:13:35.254Z,8.00
2018-05-08T10:16:02.981Z,8.07
2018-05-08T10:18:30.499Z,10.70
2018-05-08T10:20:57.998Z,7.73
2018-05-08T10:23:25.686Z,8.60
2018-05-08T10:25:54.072Z,8.53
2018-05-08T10:28:22.579Z,10.17
2018-05-08T10:30:50.467Z,9.73
2018-05-08T10:33:17.990Z,11.87
2018-05-08T10:35:45.515Z,10.23
2018-05-08T10:38:13.059Z,12.23
2018-05-08T10:40:40.701Z,13.80
2018-05-08T10:43:08.331Z,14.00
2018-05-08T10:45:36.188Z,11.07
2018-05-08T10:48:03.770Z,18.13
2018-05-08T10:50:31.353Z,14.67
2018-05-08T10:52:58.975Z,10.13
2018-05-08T10:55:26.523Z,12.93
2018-05-08T10:57:54.194Z,12.93
2018-05-08T11:00:22.443Z,13.50
2018-05-08T11:02:50.627Z,9.60
2018-05-08T11:05:19.865Z,9.87
2018-05-08T11:07:47.380Z,9.37
2018-05-08T11:10:14.938Z,9.10
2018-05-08T11:12:42.455Z,10.17
2018-05-08T11:15:09.983Z,7.77
2018-05-08T11:17:38.560Z,9.63
2018-05-08T11:20:06.459Z,11.43
2018-05-08T11:22:34.325Z,9.97
2018-05-08T11:25:01.858Z,12.97
2018-05-08T11:27:29.342Z,6.53
2018-05-08T11:29:57.307Z,6.07
2018-05-08T11:32:24.903Z,7.10
2018-05-08T11:34:52.533Z,6.80
2018-05-08T11:37:21.828Z,7.50
2018-05-08T11:39:52.782Z,6.57
2018-05-08T11:42:20.645Z,7.43
2018-05-08T11:44:48.659Z,6.47
2018-05-08T11:47:16.227Z,4.50
2018-05-08T11:49:43.890Z,4.90
2018-05-08T11:52:12.303Z,3.47
2018-05-08T11:54:39.974Z,5.07
2018-05-08T11:57:08.354Z,4.20
2018-05-08T11:59:36.021Z,3.67
2018-05-08T12:02:03.579Z,1.73
2018-05-08T12:04:31.312Z,2.30
2018-05-08T12:06:59.096Z,2.60
2018-05-08T12:09:38.233Z,2.80
2018-05-08T12:12:11.698Z,2.47
2018-05-08T12:17:41.930Z,4.57
2018-05-08T12:20:09.494Z,1.53
2018-05-08T12:22:37.103Z,2.00
2018-05-08T12:25:07.077Z,3.40
2018-05-08T12:27:35.343Z,3.93
2018-05-08T12:30:04.425Z,1.97
2018-05-08T12:32:32.151Z,2.80
2018-05-08T12:34:59.748Z,7.03
2018-05-08T12:37:27.299Z,12.23
2018-05-08T12:39:55.220Z,19.30
2018-05-08T12:42:26.602Z,25.60
2018-05-08T12:44:58.412Z,28.30
2018-05-08T12:47:31.608Z,19.00
2018-05-08T12:50:03.842Z,20.77
2018-05-08T12:52:34.680Z,28.10
2018-05-08T12:55:02.247Z,31.37
2018-05-08T12:57:30.823Z,32.20
2018-05-08T13:00:03.366Z,30.33
2018-05-08T13:05:07.601Z,28.93
2018-05-08T13:07:39.569Z,34.87
2018-05-08T13:10:07.099Z,37.03
2018-05-08T13:12:34.756Z,31.70
2018-05-08T13:15:02.475Z,39.57
2018-05-08T13:17:32.398Z,31.90
2018-05-08T13:20:00.541Z,31.23
2018-05-08T13:25:03.849Z,38.57
2018-05-08T13:27:32.392Z,35.93
2018-05-08T13:29:59.940Z,30.13
2018-05-08T13:32:27.617Z,29.93
2018-05-08T13:34:58.477Z,39.03
2018-05-08T13:37:31.989Z,37.00
2018-05-08T13:40:00.384Z,45.13
2018-05-08T13:42:28.505Z,30.77
2018-05-08T13:44:56.064Z,30.30
2018-05-08T13:47:23.603Z,29.80
2018-05-08T13:49:51.144Z,34.77
2018-05-08T13:52:22.557Z,25.03
2018-05-08T13:54:54.371Z,26.53
2018-05-08T13:57:22.763Z,32.40
2018-05-08T13:59:51.531Z,30.77
2018-05-08T14:02:19.074Z,35.43
2018-05-08T14:04:46.607Z,29.53
2018-05-08T14:07:14.143Z,29.47
2018-05-08T14:09:41.867Z,33.97
2018-05-08T14:12:09.462Z,30.00
2018-05-08T14:14:37.084Z,28.17
2018-05-08T14:17:04.639Z,29.00
2018-05-08T14:19:32.206Z,32.27
2018-05-08T14:21:59.813Z,37.07
2018-05-08T14:24:27.554Z,32.97
2018-05-08T14:26:55.185Z,30.17
2018-05-08T14:29:22.771Z,29.17
2018-05-08T14:31:54.915Z,32.10
2018-05-08T14:34:22.477Z,37.63
2018-05-08T14:36:50.010Z,33.20
2018-05-08T14:39:17.575Z,34.87
2018-05-08T14:41:45.299Z,38.23
2018-05-08T14:44:12.913Z,29.63
2018-05-08T14:46:40.492Z,30.30
2018-05-08T14:49:08.161Z,39.97
2018-05-08T14:51:35.699Z,37.63
2018-05-08T14:54:03.286Z,30.97
2018-05-08T14:56:30.849Z,34.07
2018-05-08T14:58:58.545Z,30.57
2018-05-08T15:01:26.365Z,28.23
2018-05-08T15:03:54.808Z,33.50
2018-05-08T15:06:24.143Z,31.97
2018-05-08T15:08:51.795Z,28.17
2018-05-08T15:11:19.399Z,34.07
2018-05-08T15:13:46.940Z,32.13
2018-05-08T15:16:14.714Z,37.47
2018-05-08T15:18:42.349Z,38.00
2018-05-08T15:21:10.302Z,38.57
2018-05-08T15:23:38.191Z,39.57
2018-05-08T15:26:05.728Z,39.37
2018-05-08T15:28:33.272Z,38.43
2018-05-08T15:31:00.827Z,28.87
2018-05-08T15:33:28.624Z,34.27
2018-05-08T15:35:56.404Z,33.33
2018-05-08T15:38:24.899Z,27.33
2018-05-08T15:40:52.540Z,31.83
2018-05-08T15:43:20.080Z,40.00
2018-05-08T15:45:47.651Z,29.40
2018-05-08T15:48:17.358Z,32.13
2018-05-08T15:50:44.949Z,26.73
2018-05-08T15:53:12.573Z,32.97
2018-05-08T15:55:40.256Z,41.30
2018-05-08T15:58:12.276Z,35.73
2018-05-08T16:00:39.801Z,32.17
2018-05-08T16:03:07.289Z,29.70
2018-05-08T16:05:35.025Z,29.83
2018-05-08T16:08:02.643Z,35.30
2018-05-08T16:10:32.709Z,31.10
2018-05-08T16:13:02.639Z,28.47
2018-05-08T16:15:31.575Z,28.40
2018-05-08T16:17:59.152Z,35.70
2018-05-08T16:20:26.755Z,34.50
2018-05-08T16:22:54.321Z,39.90
2018-05-08T16:25:22.153Z,33.23
2018-05-08T16:27:50.932Z,35.00
2018-05-08T16:30:19.536Z,30.70
2018-05-08T16:32:47.888Z,39.83
2018-05-08T16:35:15.567Z,29.57
2018-05-08T16:37:43.151Z,30.77
2018-05-08T16:40:10.659Z,30.63
2018-05-08T16:42:38.451Z,29.00
2018-05-08T16:45:07.704Z,28.10
2018-05-08T16:47:35.397Z,25.47
2018-05-08T16:50:03.179Z,30.23
2018-05-08T16:52:30.715Z,26.50
2018-05-08T16:54:58.227Z,29.17
2018-05-08T16:57:25.824Z,27.47
2018-05-08T16:59:53.703Z,29.33
2018-05-08T17:02:22.276Z,22.57
2018-05-08T17:07:27.353Z,28.87
2018-05-08T17:09:55.009Z,28.57
2018-05-08T17:12:22.599Z,24.60
2018-05-08T17:14:50.249Z,30.97
2018-05-08T17:17:18.227Z,24.83
2018-05-08T17:19:46.883Z,18.67
2018-05-08T17:27:26.327Z,25.60
2018-05-08T17:29:53.913Z,23.23
2018-05-08T17:32:21.462Z,23.70
2018-05-08T17:34:49.319Z,17.27
2018-05-08T17:42:24.427Z,32.00
2018-05-08T17:44:52.774Z,19.87
2018-05-08T17:47:20.333Z,25.00
2018-05-08T17:49:47.861Z,20.70
2018-05-08T17:52:15.442Z,21.50
2018-05-08T17:54:43.902Z,21.20
2018-05-08T18:02:17.355Z,19.93
2018-05-08T18:04:44.935Z,20.30
2018-05-08T18:07:12.480Z,20.03
2018-05-08T18:09:40.111Z,18.10
2018-05-08T18:14:46.763Z,20.53
2018-05-08T18:17:15.535Z,26.83
2018-05-08T18:19:43.177Z,15.10
2018-05-08T18:22:10.743Z,20.40
2018-05-08T18:24:38.292Z,23.90
2018-05-08T18:29:44.056Z,21.07
2018-05-08T18:34:50.672Z,21.70
2018-05-08T18:37:18.327Z,23.77
2018-05-08T18:39:45.851Z,20.47
2018-05-08T18:42:13.444Z,19.30
2018-05-08T18:44:43.570Z,21.60
2018-05-08T18:47:12.248Z,21.33
2018-05-08T18:49:50.795Z,18.13
2018-05-08T18:55:03.443Z,17.20
2018-05-08T18:57:30.983Z,15.47
2018-05-08T19:00:04.226Z,22.07
2018-05-08T19:05:07.684Z,18.07
2018-05-08T19:12:41.468Z,19.43
2018-05-08T19:15:14.760Z,20.53
2018-05-08T19:17:42.588Z,29.83
2018-05-08T19:22:43.101Z,22.70
2018-05-08T19:27:50.968Z,21.27
2018-05-08T19:30:24.042Z,31.33
2018-05-08T19:32:51.660Z,22.70
2018-05-08T19:35:24.909Z,21.43
2018-05-08T19:46:35.937Z,23.97
2018-05-08T19:49:03.513Z,27.40
2018-05-08T19:51:31.129Z,25.37
2018-05-08T20:01:47.842Z,36.30
2018-05-08T20:04:15.457Z,27.07
2018-05-08T20:06:43.059Z,31.33
2018-05-08T20:09:10.647Z,26.47
2018-05-08T20:16:44.712Z,27.50
2018-05-08T20:19:12.764Z,31.03
2018-05-08T20:21:40.435Z,36.80
2018-05-08T20:24:07.995Z,31.73
2018-05-08T20:26:35.607Z,31.33
2018-05-08T20:29:03.323Z,25.53
2018-05-08T20:31:31.860Z,28.37
2018-05-08T20:34:00.310Z,27.33
2018-05-08T20:36:28.203Z,31.17
2018-05-08T20:38:55.911Z,33.03
2018-05-08T20:41:23.503Z,34.17
2018-05-08T20:43:51.052Z,34.03
2018-05-08T20:48:51.959Z,37.83
2018-05-08T20:51:20.582Z,37.40
2018-05-08T20:56:19.791Z,27.73
2018-05-08T20:58:47.419Z,41.87
2018-05-08T21:01:15.195Z,33.37
2018-05-08T21:06:17.778Z,34.60
2018-05-08T21:11:17.772Z,30.40
2018-05-08T21:13:45.400Z,31.33
2018-05-08T21:16:13.092Z,36.57
2018-05-08T21:18:40.709Z,34.23
2018-05-08T21:21:08.460Z,32.90
2018-05-08T21:23:36.104Z,41.90
2018-05-08T21:26:04.608Z,35.87
2018-05-08T21:28:37.791Z,33.27
2018-05-08T21:31:10.887Z,31.70
2018-05-08T21:33:38.428Z,35.60
2018-05-08T21:36:06.106Z,33.30
2018-05-08T21:41:07.917Z,33.93
2018-05-08T21:46:08.211Z,38.20
2018-05-08T21:48:35.803Z,24.17
2018-05-08T21:51:03.371Z,30.43
2018-05-08T21:53:31.023Z,25.77
2018-05-08T21:58:32.203Z,18.10
2018-05-08T22:01:00.846Z,22.03
2018-05-08T22:03:28.885Z,37.40
2018-05-08T22:05:56.499Z,27.70
2018-05-08T22:08:24.011Z,26.57
2018-05-08T22:10:51.863Z,24.10
2018-05-08T22:13:20.313Z,28.30
2018-05-08T22:15:48.609Z,27.87
2018-05-08T22:18:16.223Z,29.10
2018-05-08T22:20:43.768Z,31.87
2018-05-08T22:23:11.279Z,26.87
2018-05-08T22:25:38.792Z,28.57
2018-05-08T22:28:06.454Z,27.60
2018-05-08T22:30:34.847Z,26.83
2018-05-08T22:33:03.575Z,30.47
2018-05-08T22:35:31.920Z,26.13
2018-05-08T22:37:59.470Z,21.80
2018-05-08T22:40:27.028Z,25.00
2018-05-08T22:42:54.575Z,29.53
2018-05-08T22:45:22.182Z,23.73
2018-05-08T22:47:50.812Z,21.63
2018-05-08T22:50:18.860Z,17.83
2018-05-08T22:52:47.628Z,17.13
2018-05-08T22:55:15.198Z,22.37
2018-05-08T22:57:42.890Z,16.17
2018-05-08T23:00:10.413Z,22.07
2018-05-08T23:02:38.031Z,13.60
2018-05-08T23:05:07.699Z,20.00
2018-05-08T23:07:36.375Z,20.33
2018-05-08T23:10:04.027Z,22.73
2018-05-08T23:12:31.579Z,18.93
2018-05-08T23:14:59.103Z,20.77
2018-05-08T23:17:26.703Z,24.93
2018-05-08T23:19:54.474Z,23.63
2018-05-08T23:22:23.250Z,23.63
2018-05-08T23:24:55.640Z,22.07
2018-05-08T23:27:24.703Z,18.23
2018-05-08T23:29:52.315Z,18.43
2018-05-08T23:32:19.910Z,18.07
2018-05-08T23:34:47.470Z,16.07
2018-05-08T23:37:16.044Z,22.83
2018-05-08T23:39:44.990Z,16.90
2018-05-08T23:42:14.680Z,22.17
2018-05-08T23:44:42.851Z,19.70
2018-05-08T23:47:10.399Z,20.60
2018-05-08T23:49:37.945Z,30.77
2018-05-08T23:52:05.586Z,22.50
2018-05-08T23:54:34.138Z,20.23
2018-05-08T23:57:02.077Z,22.37
2018-05-08T23:59:31.583Z,18.20
